Terminal Aerodrome Forecast
Issued by NWS

Home | Current Version | Previous Version | Text Only | Print | Product List | Glossary On
Versions: 1 2 3 4 5 6 7 8 9 10 11 12 13 14 15 16 17 18 19 20 21 22 23 24 25 26 27 28
585
FTUS44 KFWD 110909 AAA
TAFAFW
TAF AMD
KAFW 110909Z 1109/1206 18015KT 5SM -DZ BR OVC008
     FM111600 20018G28KT P6SM BKN015
     FM111800 20018G28KT P6SM SCT015 SCT300
     FM112200 20020KT P6SM SCT025 BKN250
     FM120300 30012KT P6SM BKN250=

USA.gov is the U.S. government's official web portal to all federal, state and local government web resources and services.